createdAt,value
2023-08-17T00:00:43.616Z,101749.22
2023-08-17T00:01:45.531Z,101751.63
2023-08-17T00:02:47.444Z,101755.69
2023-08-17T00:03:49.351Z,101752.50
2023-08-17T00:04:51.430Z,101763.84
2023-08-17T00:05:53.384Z,101754.72
2023-08-17T00:06:55.459Z,101763.16
2023-08-17T00:07:57.476Z,101759.97
2023-08-17T00:08:59.308Z,101766.91
2023-08-17T00:10:01.295Z,101761.66
2023-08-17T00:11:03.261Z,101772.53
2023-08-17T00:12:05.604Z,101768.94
2023-08-17T00:13:08.575Z,101768.66
2023-08-17T00:14:11.368Z,101759.84
2023-08-17T00:15:13.216Z,101766.59
2023-08-17T00:16:15.204Z,101772.03
2023-08-17T00:17:17.344Z,101778.69
2023-08-17T00:18:19.171Z,101780.19
2023-08-17T00:19:21.039Z,101786.47
2023-08-17T00:20:22.852Z,101779.16
2023-08-17T00:21:25.041Z,101793.75
2023-08-17T00:22:27.106Z,101786.63
2023-08-17T00:23:29.546Z,101792.06
2023-08-17T00:24:31.382Z,101792.06
2023-08-17T00:25:33.218Z,101794.78
2023-08-17T00:26:35.374Z,101788.69
2023-08-17T00:27:37.409Z,101795.00
2023-08-17T00:28:39.287Z,101801.44
2023-08-17T00:29:41.313Z,101779.63
2023-08-17T00:30:43.185Z,101803.31
2023-08-17T00:31:45.105Z,101807.91
2023-08-17T00:32:47.062Z,101805.34
2023-08-17T00:33:48.943Z,101807.03
2023-08-17T00:34:50.842Z,101814.16
2023-08-17T00:35:52.943Z,101809.91
2023-08-17T00:36:54.895Z,101816.03
2023-08-17T00:37:56.979Z,101798.94
2023-08-17T00:38:58.874Z,101821.66
2023-08-17T00:40:00.857Z,101816.53
2023-08-17T00:41:02.862Z,101822.63
2023-08-17T00:42:05.002Z,101822.19
2023-08-17T00:43:08.730Z,101823.66
2023-08-17T00:44:10.541Z,101822.63
2023-08-17T00:45:12.442Z,101828.25
2023-08-17T00:46:15.324Z,101823.88
2023-08-17T00:47:17.285Z,101827.59
2023-08-17T00:48:19.458Z,101813.03
2023-08-17T00:49:23.968Z,101823.00
2023-08-17T00:50:27.522Z,101834.88
2023-08-17T00:51:29.668Z,101817.28
2023-08-17T00:52:33.786Z,101832.16
2023-08-17T00:53:35.928Z,101829.47
2023-08-17T00:54:38.652Z,101823.38
2023-08-17T00:55:41.760Z,101826.44
2023-08-17T00:56:43.926Z,101831.50
2023-08-17T00:57:46.372Z,101832.53
2023-08-17T00:58:48.525Z,101832.38
2023-08-17T01:00:02.962Z,101835.25
2023-08-17T01:01:05.380Z,101837.59
2023-08-17T01:02:08.525Z,101816.47
2023-08-17T01:03:13.224Z,101833.19
2023-08-17T01:04:15.047Z,101840.69
2023-08-17T01:05:16.940Z,101831.38
2023-08-17T01:06:19.989Z,101841.88
2023-08-17T01:07:22.623Z,101841.03
2023-08-17T01:08:25.537Z,101847.31
2023-08-17T01:09:27.519Z,101841.03
2023-08-17T01:10:42.266Z,101839.72
2023-08-17T01:11:56.549Z,101839.34
2023-08-17T01:13:16.412Z,101851.84
2023-08-17T01:14:32.243Z,101852.88
2023-08-17T01:15:41.942Z,101844.91
2023-08-17T01:16:55.861Z,101851.19
2023-08-17T01:18:04.705Z,101853.75
2023-08-17T01:19:12.761Z,101856.09
2023-08-17T01:20:17.120Z,101851.25
2023-08-17T01:21:23.686Z,101858.53
2023-08-17T01:22:27.901Z,101860.22
2023-08-17T01:23:29.996Z,101864.81
2023-08-17T01:24:31.925Z,101864.16
2023-08-17T01:25:39.890Z,101853.34
2023-08-17T01:26:41.920Z,101869.56
2023-08-17T01:27:46.474Z,101868.06
2023-08-17T01:28:48.740Z,101857.91
2023-08-17T01:29:51.156Z,101867.94
2023-08-17T01:31:16.139Z,101865.53
2023-08-17T01:32:29.238Z,101871.06
2023-08-17T01:33:53.782Z,101865.78
2023-08-17T01:35:07.935Z,101874.66
2023-08-17T01:36:16.636Z,101872.59
2023-08-17T01:37:22.185Z,101857.56
2023-08-17T01:38:25.252Z,101883.16
2023-08-17T01:39:38.254Z,101886.88
2023-08-17T01:40:40.859Z,101873.47
2023-08-17T01:41:43.461Z,101885.38
2023-08-17T01:42:45.373Z,101883.88
2023-08-17T01:43:48.942Z,101875.41
2023-08-17T01:44:51.331Z,101876.44
2023-08-17T01:45:53.598Z,101889.47
2023-08-17T01:46:56.093Z,101892.53
2023-08-17T01:47:58.687Z,101889.00
2023-08-17T01:49:00.623Z,101888.31
2023-08-17T01:50:02.682Z,101900.88
2023-08-17T01:51:04.519Z,101899.84
2023-08-17T01:52:06.604Z,101895.75
2023-08-17T01:53:09.549Z,101907.13
2023-08-17T01:54:11.472Z,101910.03
2023-08-17T01:55:13.548Z,101899.69
2023-08-17T01:56:15.759Z,101906.63
2023-08-17T01:57:17.636Z,101911.72
2023-08-17T01:58:19.597Z,101914.44
2023-08-17T01:59:21.453Z,101914.59
2023-08-17T02:00:23.375Z,101921.91
2023-08-17T02:01:25.406Z,101926.31
2023-08-17T02:02:27.412Z,101913.13
2023-08-17T02:03:30.181Z,101925.47
2023-08-17T02:04:32.109Z,101924.13
2023-08-17T02:05:34.009Z,101943.63
2023-08-17T02:06:35.901Z,101933.75
2023-08-17T02:07:38.126Z,101932.06
2023-08-17T02:08:40.622Z,101922.78
2023-08-17T02:09:42.488Z,101933.75
2023-08-17T02:10:44.413Z,101923.81
2023-08-17T02:11:46.313Z,101937.50
2023-08-17T02:12:48.656Z,101936.66
2023-08-17T02:13:50.629Z,101936.66
2023-08-17T02:14:52.566Z,101935.81
2023-08-17T02:15:54.475Z,101942.09
2023-08-17T02:16:56.459Z,101941.25
2023-08-17T02:18:02.603Z,101937.38
2023-08-17T02:19:04.788Z,101951.06
2023-08-17T02:20:07.565Z,101935.69
2023-08-17T02:21:10.622Z,101948.34
2023-08-17T02:22:15.790Z,101949.22
2023-08-17T02:23:17.622Z,101952.09
2023-08-17T02:24:20.737Z,101938.22
2023-08-17T02:25:22.698Z,101952.28
2023-08-17T02:26:26.603Z,101945.84
2023-08-17T02:27:28.706Z,101947.03
2023-08-17T02:28:30.577Z,101952.44
2023-08-17T02:29:32.451Z,101951.63
2023-08-17T02:30:35.444Z,101953.31
2023-08-17T02:31:37.402Z,101938.56
2023-08-17T02:32:39.289Z,101946.34
2023-08-17T02:33:41.367Z,101953.47
2023-08-17T02:34:43.322Z,101946.91
2023-08-17T02:35:50.301Z,101942.81
2023-08-17T02:36:52.287Z,101940.25
2023-08-17T02:37:54.254Z,101945.69
2023-08-17T02:38:56.081Z,101942.28
2023-08-17T02:39:58.369Z,101948.06
2023-08-17T02:41:00.244Z,101953.81
2023-08-17T02:42:02.161Z,101959.25
2023-08-17T02:43:06.370Z,101949.97
2023-08-17T02:44:08.388Z,101967.41
2023-08-17T02:45:10.746Z,101954.84
2023-08-17T02:46:12.699Z,101959.44
2023-08-17T02:47:14.912Z,101960.28
2023-08-17T02:48:16.812Z,101968.59
2023-08-17T02:49:18.801Z,101963.19
2023-08-17T02:50:20.685Z,101967.75
2023-08-17T02:51:22.629Z,101972.34
2023-08-17T02:52:24.732Z,101976.06
2023-08-17T02:53:26.560Z,101963.03
2023-08-17T02:54:28.418Z,101969.78
2023-08-17T02:55:30.381Z,101974.19
2023-08-17T02:56:32.287Z,101969.78
2023-08-17T02:57:34.190Z,101967.44
2023-08-17T02:58:36.038Z,101969.78
2023-08-17T02:59:37.940Z,101980.63
2023-08-17T03:00:40.690Z,101973.88
2023-08-17T03:01:42.512Z,101963.03
2023-08-17T03:02:44.514Z,101977.25
2023-08-17T03:03:46.462Z,101981.00
2023-08-17T03:04:48.314Z,101974.72
2023-08-17T03:05:50.192Z,101979.28
2023-08-17T03:06:52.535Z,101965.56
2023-08-17T03:07:54.356Z,101979.28
2023-08-17T03:08:56.309Z,101979.28
2023-08-17T03:09:58.288Z,101965.09
2023-08-17T03:11:00.112Z,101989.47
2023-08-17T03:12:01.971Z,101979.31
2023-08-17T03:13:03.987Z,101989.47
2023-08-17T03:14:06.093Z,101989.47
2023-08-17T03:15:08.158Z,101986.78
2023-08-17T03:16:11.122Z,101990.50
2023-08-17T03:17:13.014Z,101974.06
2023-08-17T03:18:14.968Z,101986.09
2023-08-17T03:19:17.002Z,101994.03
2023-08-17T03:20:19.628Z,101990.50
2023-08-17T03:21:21.809Z,101990.50
2023-08-17T03:22:23.650Z,101995.94
2023-08-17T03:23:25.516Z,101995.06
2023-08-17T03:24:28.389Z,102011.34
2023-08-17T03:25:31.229Z,102006.78
2023-08-17T03:26:33.928Z,102004.06
2023-08-17T03:27:35.993Z,102003.75
2023-08-17T03:28:38.968Z,102010.50
2023-08-17T03:29:41.056Z,102005.59
2023-08-17T03:30:43.497Z,102012.22
2023-08-17T03:31:45.351Z,102010.50
2023-08-17T03:32:47.305Z,102015.94
2023-08-17T03:33:49.746Z,102006.97
2023-08-17T03:34:51.620Z,102003.91
2023-08-17T03:35:53.542Z,102001.19
2023-08-17T03:36:55.383Z,102020.50
2023-08-17T03:37:57.647Z,102010.88
2023-08-17T03:38:59.724Z,102022.38
2023-08-17T03:40:04.461Z,102016.09
2023-08-17T03:41:07.770Z,102022.38
2023-08-17T03:42:09.647Z,102023.41
2023-08-17T03:43:12.016Z,102020.69
2023-08-17T03:44:15.025Z,102019.84
2023-08-17T03:45:17.205Z,102029.66
2023-08-17T03:46:19.212Z,102026.28
2023-08-17T03:47:21.500Z,102036.13
2023-08-17T03:48:23.997Z,102029.19
2023-08-17T03:49:25.882Z,102023.25
2023-08-17T03:50:29.234Z,102025.78
2023-08-17T03:51:31.277Z,102030.88
2023-08-17T03:52:33.103Z,102021.38
2023-08-17T03:53:34.960Z,102020.72
2023-08-17T03:54:37.537Z,102034.59
2023-08-17T03:55:39.361Z,102033.59
2023-08-17T03:56:42.974Z,102038.16
2023-08-17T03:57:44.812Z,102040.03
2023-08-17T03:58:46.748Z,102034.59
2023-08-17T03:59:48.702Z,102033.75
2023-08-17T04:00:52.212Z,102039.16
2023-08-17T04:02:00.212Z,102008.47
2023-08-17T04:03:02.253Z,102031.03
2023-08-17T04:04:04.370Z,102039.16
2023-08-17T04:05:07.228Z,102034.59
2023-08-17T04:06:11.405Z,102032.72
2023-08-17T04:07:21.347Z,102044.59
2023-08-17T04:08:23.199Z,102050.88
2023-08-17T04:09:25.229Z,102052.75
2023-08-17T04:10:27.073Z,102052.38
2023-08-17T04:11:29.851Z,102040.69
2023-08-17T04:12:31.735Z,102057.50
2023-08-17T04:13:33.642Z,102051.22
2023-08-17T04:14:35.522Z,102044.25
2023-08-17T04:15:37.685Z,102053.59
2023-08-17T04:16:39.634Z,102046.47
2023-08-17T04:17:41.754Z,102051.53
2023-08-17T04:18:43.833Z,102054.25
2023-08-17T04:19:46.388Z,102058.69
2023-08-17T04:20:48.246Z,102056.09
2023-08-17T04:21:51.580Z,102061.41
2023-08-17T04:22:53.749Z,102047.63
2023-08-17T04:23:55.636Z,102063.22
2023-08-17T04:24:57.537Z,102057.47
2023-08-17T04:26:00.661Z,102065.81
2023-08-17T04:27:05.130Z,102052.91
2023-08-17T04:28:07.136Z,102063.09
2023-08-17T04:29:10.620Z,102064.81
2023-08-17T04:30:13.297Z,102054.41
2023-08-17T04:31:30.233Z,102070.72
2023-08-17T04:32:36.141Z,102070.56
2023-08-17T04:33:38.164Z,102062.91
2023-08-17T04:34:40.161Z,102074.63
2023-08-17T04:35:42.133Z,102071.72
2023-08-17T04:36:44.070Z,102074.63
2023-08-17T04:37:45.887Z,102076.31
2023-08-17T04:38:47.841Z,102065.09
2023-08-17T04:39:50.355Z,102077.16
2023-08-17T04:40:55.767Z,102079.72
2023-08-17T04:41:57.781Z,102071.25
2023-08-17T04:43:05.200Z,102075.97
2023-08-17T04:44:07.039Z,102084.13
2023-08-17T04:45:09.324Z,102090.56
2023-08-17T04:46:15.182Z,102089.34
2023-08-17T04:47:17.744Z,102087.66
2023-08-17T04:48:19.570Z,102085.97
2023-08-17T04:49:22.805Z,102091.41
2023-08-17T04:50:24.689Z,102096.81
2023-08-17T04:51:28.829Z,102089.53
2023-08-17T04:52:32.335Z,102092.25
2023-08-17T04:53:34.263Z,102096.00
2023-08-17T04:54:36.714Z,102096.00
2023-08-17T04:55:38.543Z,102107.69
2023-08-17T04:56:40.501Z,102101.41
2023-08-17T04:57:42.386Z,102110.56
2023-08-17T04:58:46.319Z,102105.16
2023-08-17T04:59:49.502Z,102106.84
2023-08-17T05:00:53.044Z,102095.97
2023-08-17T05:01:55.689Z,102104.63
2023-08-17T05:02:58.551Z,102107.34
2023-08-17T05:04:05.660Z,102107.00
2023-08-17T05:05:08.755Z,102112.63
2023-08-17T05:06:10.608Z,102123.13
2023-08-17T05:07:13.241Z,102119.38
2023-08-17T05:08:15.145Z,102120.91
2023-08-17T05:09:17.551Z,102118.53
2023-08-17T05:10:19.522Z,102121.09
2023-08-17T05:11:22.127Z,102123.63
2023-08-17T05:12:25.020Z,102121.75
2023-08-17T05:13:27.904Z,102125.31
2023-08-17T05:14:32.947Z,102124.13
2023-08-17T05:15:34.794Z,102132.13
2023-08-17T05:16:39.572Z,102121.41
2023-08-17T05:17:41.722Z,102112.44
2023-08-17T05:18:45.854Z,102136.50
2023-08-17T05:19:52.722Z,102114.63
2023-08-17T05:20:55.078Z,102134.28
2023-08-17T05:21:57.089Z,102131.06
2023-08-17T05:22:58.961Z,102121.25
2023-08-17T05:24:00.805Z,102129.53
2023-08-17T05:25:03.013Z,102129.19
2023-08-17T05:26:07.542Z,102148.22
2023-08-17T05:27:09.654Z,102139.72
2023-08-17T05:28:12.396Z,102147.53
2023-08-17T05:29:14.314Z,102139.53
2023-08-17T05:30:17.357Z,102147.84
2023-08-17T05:31:19.310Z,102151.22
2023-08-17T05:32:23.505Z,102144.78
2023-08-17T05:33:26.618Z,102150.53
2023-08-17T05:34:28.549Z,102137.31
2023-08-17T05:35:31.244Z,102144.78
2023-08-17T05:36:33.604Z,102152.25
2023-08-17T05:37:35.471Z,102161.06
2023-08-17T05:38:37.336Z,102142.59
2023-08-17T05:39:42.353Z,102164.09
2023-08-17T05:40:44.519Z,102168.19
2023-08-17T05:41:46.388Z,102160.88
2023-08-17T05:42:48.200Z,102167.84
2023-08-17T05:43:50.239Z,102170.22
2023-08-17T05:44:52.289Z,102164.78
2023-08-17T05:45:54.417Z,102167.16
2023-08-17T05:46:56.299Z,102154.59
2023-08-17T05:47:58.259Z,102170.00
2023-08-17T05:49:00.431Z,102169.84
2023-08-17T05:50:02.358Z,102167.13
2023-08-17T05:51:04.348Z,102170.16
2023-08-17T05:52:06.525Z,102178.31
2023-08-17T05:53:08.367Z,102166.75
2023-08-17T05:54:10.279Z,102173.19
2023-08-17T05:55:12.360Z,102162.66
2023-08-17T05:56:14.303Z,102158.25
2023-08-17T05:57:16.318Z,102174.53
2023-08-17T05:58:18.473Z,102181.50
2023-08-17T05:59:20.368Z,102174.19
2023-08-17T06:00:22.214Z,102166.72
2023-08-17T06:01:24.149Z,102175.38
2023-08-17T06:02:25.997Z,102177.41
2023-08-17T06:03:27.998Z,102182.84
2023-08-17T06:04:29.891Z,102174.50
2023-08-17T06:05:31.854Z,102173.50
2023-08-17T06:06:33.786Z,102175.19
2023-08-17T06:07:36.044Z,102176.88
2023-08-17T06:08:38.027Z,102175.00
2023-08-17T06:09:39.902Z,102161.75
2023-08-17T06:10:42.085Z,102177.91
2023-08-17T06:11:43.950Z,102161.25
2023-08-17T06:12:45.867Z,102182.00
2023-08-17T06:13:47.726Z,102185.38
2023-08-17T06:14:49.597Z,102184.53
2023-08-17T06:15:51.626Z,102189.13
2023-08-17T06:16:53.714Z,102190.81
2023-08-17T06:17:55.746Z,102180.78
2023-08-17T06:18:57.702Z,102185.72
2023-08-17T06:19:59.560Z,102192.53
2023-08-17T06:21:01.469Z,102189.44
2023-08-17T06:22:03.434Z,102188.78
2023-08-17T06:23:05.474Z,102188.09
2023-08-17T06:24:07.607Z,102199.66
2023-08-17T06:25:09.893Z,102198.78
2023-08-17T06:26:11.744Z,102191.50
2023-08-17T06:27:16.044Z,102191.66
2023-08-17T06:28:17.876Z,102193.84
2023-08-17T06:29:19.916Z,102187.91
2023-08-17T06:30:22.011Z,102205.09
2023-08-17T06:31:28.439Z,102195.41
2023-08-17T06:32:31.623Z,102211.88
2023-08-17T06:33:33.631Z,102202.19
2023-08-17T06:34:37.842Z,102212.69
2023-08-17T06:35:39.933Z,102203.03
2023-08-17T06:36:41.812Z,102209.81
2023-08-17T06:37:43.734Z,102205.75
2023-08-17T06:38:45.706Z,102203.88
2023-08-17T06:39:47.575Z,102205.41
2023-08-17T06:40:49.522Z,102202.38
2023-08-17T06:41:51.364Z,102209.81
2023-08-17T06:42:55.459Z,102203.50
2023-08-17T06:43:57.612Z,102210.66
2023-08-17T06:44:59.540Z,102206.06
2023-08-17T06:46:02.926Z,102206.78
2023-08-17T06:47:05.076Z,102210.47
2023-08-17T06:48:07.448Z,102214.22
2023-08-17T06:49:09.741Z,102213.22
2023-08-17T06:50:13.189Z,102214.03
2023-08-17T06:51:15.293Z,102210.66
2023-08-17T06:52:17.190Z,102213.22
2023-08-17T06:53:19.036Z,102209.97
2023-08-17T06:54:21.197Z,102210.84
2023-08-17T06:55:23.140Z,102217.63
2023-08-17T06:56:25.020Z,102207.09
2023-08-17T06:57:27.189Z,102206.78
2023-08-17T06:58:29.377Z,102225.59
2023-08-17T06:59:31.321Z,102214.03
2023-08-17T07:00:33.324Z,102221.16
2023-08-17T07:01:35.250Z,102224.75
2023-08-17T07:02:52.040Z,102223.72
2023-08-17T07:03:57.053Z,102221.31
2023-08-17T07:04:58.898Z,102224.56
2023-08-17T07:06:00.876Z,102226.94
2023-08-17T07:07:03.231Z,102223.38
2023-08-17T07:08:05.586Z,102220.50
2023-08-17T07:09:08.075Z,102226.09
2023-08-17T07:10:11.685Z,102227.97
2023-08-17T07:11:13.632Z,102217.94
2023-08-17T07:12:15.524Z,102229.47
2023-08-17T07:13:17.410Z,102228.44
2023-08-17T07:14:21.729Z,102223.00
2023-08-17T07:15:24.568Z,102225.56
2023-08-17T07:16:26.490Z,102229.13
2023-08-17T07:17:28.653Z,102228.09
2023-08-17T07:18:30.834Z,102220.28
2023-08-17T07:19:57.613Z,102221.31
2023-08-17T07:20:56.141Z,102223.63
2023-08-17T07:21:59.074Z,102222.81
2023-08-17T07:23:01.169Z,102226.72
2023-08-17T07:24:13.615Z,102234.88
2023-08-17T07:25:15.639Z,102235.38
2023-08-17T07:26:20.279Z,102239.97
2023-08-17T07:27:22.315Z,102231.50
2023-08-17T07:28:24.413Z,102240.97
2023-08-17T07:29:26.601Z,102239.47
2023-08-17T07:30:28.641Z,102244.72
2023-08-17T07:31:30.536Z,102242.00
2023-08-17T07:32:33.325Z,102245.09
2023-08-17T07:33:35.162Z,102241.34
2023-08-17T07:34:37.910Z,102249.13
2023-08-17T07:35:39.941Z,102242.88
2023-08-17T07:36:42.993Z,102240.31
2023-08-17T07:37:50.420Z,102246.06
2023-08-17T07:39:01.768Z,102252.69
2023-08-17T07:40:06.445Z,102240.63
2023-08-17T07:41:08.321Z,102237.91
2023-08-17T07:42:10.406Z,102239.59
2023-08-17T07:43:12.274Z,102253.53
2023-08-17T07:44:14.270Z,102245.56
2023-08-17T07:45:16.162Z,102250.81
2023-08-17T07:46:18.247Z,102249.81
2023-08-17T07:47:20.131Z,102251.84
2023-08-17T07:48:22.119Z,102248.78
2023-08-17T07:49:32.186Z,102250.47
2023-08-17T07:50:35.268Z,102252.16
2023-08-17T07:51:37.271Z,102245.69
2023-08-17T07:52:39.211Z,102244.84
2023-08-17T07:53:41.202Z,102253.84
2023-08-17T07:54:43.000Z,102248.41
2023-08-17T07:55:45.115Z,102248.41
2023-08-17T07:56:47.077Z,102246.88
2023-08-17T07:57:48.935Z,102246.06
2023-08-17T07:58:50.773Z,102249.44
2023-08-17T07:59:52.890Z,102258.06
2023-08-17T08:00:54.696Z,102254.88
2023-08-17T08:01:57.091Z,102254.34
2023-08-17T08:02:59.231Z,102260.63
2023-08-17T08:04:01.136Z,102261.47
2023-08-17T08:05:03.211Z,102254.16
2023-08-17T08:06:05.301Z,102260.44
2023-08-17T08:07:07.521Z,102265.72
2023-08-17T08:08:09.438Z,102264.69
2023-08-17T08:09:11.386Z,102267.41
2023-08-17T08:10:13.355Z,102254.53
2023-08-17T08:11:15.376Z,102270.97
2023-08-17T08:12:17.325Z,102269.78
2023-08-17T08:13:19.148Z,102269.78
2023-08-17T08:14:21.005Z,102269.78
2023-08-17T08:15:23.084Z,102272.50
2023-08-17T08:16:25.007Z,102271.47
2023-08-17T08:17:27.900Z,102265.06
2023-08-17T08:18:29.968Z,102272.50
2023-08-17T08:19:33.811Z,102264.69
2023-08-17T08:20:35.691Z,102279.31
2023-08-17T08:21:37.624Z,102276.59
2023-08-17T08:22:39.556Z,102271.84
2023-08-17T08:23:41.451Z,102274.56
2023-08-17T08:24:44.195Z,102281.16
2023-08-17T08:25:47.194Z,102282.88
2023-08-17T08:26:49.333Z,102289.16
2023-08-17T08:27:51.245Z,102282.88
2023-08-17T08:28:53.322Z,102287.47
2023-08-17T08:29:55.319Z,102283.72
2023-08-17T08:31:02.229Z,102281.88
2023-08-17T08:32:04.546Z,102288.13
2023-08-17T08:33:06.468Z,102282.69
2023-08-17T08:34:08.386Z,102300.06
2023-08-17T08:35:10.282Z,102289.16
2023-08-17T08:36:12.211Z,102289.50
2023-08-17T08:37:14.773Z,102287.31
2023-08-17T08:38:16.655Z,102280.66
2023-08-17T08:39:18.558Z,102291.34
2023-08-17T08:40:21.348Z,102293.03
2023-08-17T08:41:26.069Z,102297.31
2023-08-17T08:42:28.349Z,102298.00
2023-08-17T08:43:31.037Z,102294.59
2023-08-17T08:44:33.124Z,102294.59
2023-08-17T08:45:38.386Z,102295.75
2023-08-17T08:46:43.251Z,102306.34
2023-08-17T08:47:46.393Z,102293.91
2023-08-17T08:48:52.339Z,102290.69
2023-08-17T08:50:04.853Z,102299.88
2023-08-17T08:51:10.297Z,102297.84
2023-08-17T08:52:17.683Z,102298.00
2023-08-17T08:53:29.158Z,102291.34
2023-08-17T08:54:37.717Z,102297.63
2023-08-17T08:55:48.080Z,102292.91
2023-08-17T08:57:04.519Z,102306.00
2023-08-17T08:58:07.597Z,102308.16
2023-08-17T08:59:10.178Z,102299.69
2023-08-17T09:00:13.479Z,102298.34
2023-08-17T09:01:17.834Z,102305.50
2023-08-17T09:02:19.757Z,102293.25
2023-08-17T09:03:22.699Z,102293.25
2023-08-17T09:04:26.288Z,102310.22
2023-08-17T09:05:28.732Z,102306.53
2023-08-17T09:06:31.670Z,102312.94
2023-08-17T09:07:34.323Z,102300.38
2023-08-17T09:08:36.557Z,102305.81
2023-08-17T09:09:39.195Z,102307.50
2023-08-17T09:10:42.181Z,102310.22
2023-08-17T09:11:45.505Z,102312.09
2023-08-17T09:12:51.034Z,102305.81
2023-08-17T09:13:54.560Z,102307.50
2023-08-17T09:14:57.253Z,102311.09
2023-08-17T09:16:07.349Z,102304.78
2023-08-17T09:17:09.914Z,102312.63
2023-08-17T09:18:14.049Z,102306.53
2023-08-17T09:19:16.297Z,102320.13
2023-08-17T09:20:47.109Z,102313.97
2023-08-17T09:21:51.516Z,102297.16
2023-08-17T09:22:54.819Z,102317.72
2023-08-17T09:23:59.558Z,102308.88
2023-08-17T09:25:03.487Z,102314.31
2023-08-17T09:26:12.493Z,102313.81
2023-08-17T09:27:14.987Z,102317.91
2023-08-17T09:28:19.267Z,102311.81
2023-08-17T09:29:22.234Z,102307.00
2023-08-17T09:30:24.094Z,102311.25
2023-08-17T09:31:26.121Z,102313.66
2023-08-17T09:32:31.585Z,102311.09
2023-08-17T09:33:34.271Z,102304.78
2023-08-17T09:34:36.088Z,102315.34
2023-08-17T09:35:38.160Z,102312.09
2023-08-17T09:36:40.620Z,102303.25
2023-08-17T09:37:42.439Z,102310.09
2023-08-17T09:38:44.244Z,102311.25
2023-08-17T09:39:46.112Z,102315.34
2023-08-17T09:40:48.961Z,102316.38
2023-08-17T09:41:50.804Z,102317.25
2023-08-17T09:42:55.470Z,102316.38
2023-08-17T09:43:57.271Z,102318.06
2023-08-17T09:45:01.236Z,102323.50
2023-08-17T09:46:04.342Z,102307.88
2023-08-17T09:47:06.742Z,102322.69
2023-08-17T09:48:09.745Z,102318.94
2023-08-17T09:49:11.742Z,102317.25
2023-08-17T09:50:13.861Z,102321.00
2023-08-17T09:51:18.875Z,102314.69
2023-08-17T09:52:27.364Z,102307.19
2023-08-17T09:53:29.772Z,102324.19
2023-08-17T09:54:32.453Z,102326.25
2023-08-17T09:55:35.150Z,102322.69
2023-08-17T09:56:38.315Z,102328.97
2023-08-17T09:57:42.616Z,102320.13
2023-08-17T09:58:44.667Z,102325.41
2023-08-17T09:59:47.581Z,102328.97
2023-08-17T10:00:51.841Z,102331.00
2023-08-17T10:01:57.370Z,102320.81
2023-08-17T10:03:07.463Z,102320.44
2023-08-17T10:04:12.691Z,102331.69
2023-08-17T10:05:22.431Z,102316.91
2023-08-17T10:06:28.067Z,102331.53
2023-08-17T10:07:33.712Z,102303.84
2023-08-17T10:08:44.978Z,102331.31
2023-08-17T10:09:54.896Z,102328.97
2023-08-17T10:10:59.088Z,102337.13
2023-08-17T10:12:07.844Z,102339.00
2023-08-17T10:13:12.232Z,102338.81
2023-08-17T10:14:21.318Z,102337.31
2023-08-17T10:15:30.800Z,102332.69
2023-08-17T10:16:46.454Z,102335.44
2023-08-17T10:17:59.782Z,102344.94
2023-08-17T10:19:26.820Z,102337.78
2023-08-17T10:20:32.007Z,102344.56
2023-08-17T10:21:40.725Z,102340.88
2023-08-17T10:22:53.182Z,102345.94
2023-08-17T10:23:57.160Z,102341.53
2023-08-17T10:25:01.312Z,102355.16
2023-08-17T10:26:04.111Z,102340.16
2023-08-17T10:27:07.227Z,102351.03
2023-08-17T10:28:11.892Z,102349.34
2023-08-17T10:29:17.240Z,102346.78
2023-08-17T10:30:19.772Z,102358.22
2023-08-17T10:31:22.410Z,102342.72
2023-08-17T10:32:25.823Z,102354.78
2023-08-17T10:33:29.648Z,102358.53
2023-08-17T10:34:31.812Z,102362.97
2023-08-17T10:35:35.704Z,102351.75
2023-08-17T10:36:39.063Z,102350.06
2023-08-17T10:37:41.883Z,102365.84
2023-08-17T10:38:43.938Z,102357.19
2023-08-17T10:39:49.923Z,102365.84
2023-08-17T10:41:11.195Z,102363.50
2023-08-17T10:42:14.009Z,102369.78
2023-08-17T10:43:15.885Z,102371.81
2023-08-17T10:44:19.672Z,102371.94
2023-08-17T10:45:33.273Z,102373.69
2023-08-17T10:46:37.018Z,102376.25
2023-08-17T10:47:39.526Z,102370.09
2023-08-17T10:48:44.820Z,102366.69
2023-08-17T10:49:46.693Z,102365.84
2023-08-17T10:51:03.208Z,102358.91
2023-08-17T10:52:07.765Z,102373.53
2023-08-17T10:53:12.325Z,102372.81
2023-08-17T10:54:14.359Z,102367.72
2023-08-17T10:55:16.754Z,102371.13
2023-08-17T10:56:18.903Z,102356.22
2023-08-17T10:57:30.478Z,102357.91
2023-08-17T10:58:34.186Z,102379.13
2023-08-17T10:59:36.018Z,102376.41
2023-08-17T11:00:41.160Z,102374.00
2023-08-17T11:01:43.139Z,102371.13
2023-08-17T11:02:45.930Z,102374.88
2023-08-17T11:03:47.783Z,102367.88
2023-08-17T11:04:53.892Z,102366.38
2023-08-17T11:05:57.852Z,102378.41
2023-08-17T11:07:05.185Z,102382.00
2023-08-17T11:08:10.268Z,102378.25
2023-08-17T11:09:12.980Z,102375.53
2023-08-17T11:10:20.552Z,102379.28
2023-08-17T11:11:26.779Z,102373.84
2023-08-17T11:12:28.834Z,102374.66
2023-08-17T11:13:33.366Z,102377.38
2023-08-17T11:14:35.700Z,102369.44
2023-08-17T11:15:43.943Z,102370.25
2023-08-17T11:16:48.347Z,102374.88
2023-08-17T11:17:50.257Z,102380.13
2023-08-17T11:18:53.170Z,102379.44
2023-08-17T11:19:54.983Z,102377.59
2023-08-17T11:20:56.891Z,102375.88
2023-08-17T11:21:58.696Z,102377.25
2023-08-17T11:23:01.031Z,102383.19
2023-08-17T11:24:03.837Z,102386.78
2023-08-17T11:25:06.861Z,102371.63
2023-08-17T11:26:09.091Z,102382.34
2023-08-17T11:27:11.261Z,102378.63
2023-08-17T11:28:17.334Z,102380.47
2023-08-17T11:29:19.525Z,102385.75
2023-08-17T11:30:24.889Z,102392.22
2023-08-17T11:31:26.866Z,102386.78
2023-08-17T11:32:29.147Z,102388.47
2023-08-17T11:33:33.383Z,102378.78
2023-08-17T11:34:37.274Z,102380.81
2023-08-17T11:35:40.578Z,102390.16
2023-08-17T11:36:42.426Z,102388.47
2023-08-17T11:37:44.977Z,102390.53
2023-08-17T11:38:47.997Z,102396.63
2023-08-17T11:39:49.795Z,102376.78
2023-08-17T11:40:51.910Z,102384.06
2023-08-17T11:41:53.961Z,102389.50
2023-08-17T11:42:56.159Z,102393.03
2023-08-17T11:43:59.703Z,102393.25
2023-08-17T11:45:01.567Z,102402.06
2023-08-17T11:46:04.048Z,102401.22
2023-08-17T11:47:06.476Z,102407.53
2023-08-17T11:48:08.613Z,102406.50
2023-08-17T11:49:10.538Z,102410.25
2023-08-17T11:50:20.762Z,102397.34
2023-08-17T11:51:32.782Z,102407.19
2023-08-17T11:52:34.562Z,102414.34
2023-08-17T11:53:38.107Z,102407.19
2023-08-17T11:54:43.179Z,102411.06
2023-08-17T11:55:45.103Z,102418.09
2023-08-17T11:56:46.902Z,102408.19
2023-08-17T11:57:48.742Z,102414.66
2023-08-17T11:58:51.011Z,102412.97
2023-08-17T11:59:57.268Z,102416.72
2023-08-17T12:00:59.274Z,102410.59
2023-08-17T12:02:02.188Z,102418.22
2023-08-17T12:03:05.257Z,102404.63
2023-08-17T12:04:07.992Z,102421.78